Check out our new PWSWeather beta!
PWSweather.com
Personal Weather Stations
Station Observations
SHAHALMS1
Eftra, Falkenberg, HA

EftraFalkenberg, HA

Lat: 56.85, Lon: 12.65

Elevation: 140

Station Type:

http://hem.passagen.se/risarp101

High Low Average
Temperature 59.4°F15.2°C 48.6°F9.2°C 52.0°F11.1°C
Dew Point 52.5°F11.4°C 42.8°F6.0°C 46.9°F8.3°C
Winds 7.8 mph 12.6 kmh 0.4 mph 0.6 kmh 4.0 mph W6.4 kmh W
Wind Gusts 26.5 mph42.6 kmh 3.9 mph6.3 kmh 12.0 mph19.3 kmh
Humidity 89% 74% 83%
Pressure 29.92 in1013.2 mb 29.50 in999.0 mb -
Precipitation 0.00 in0.0 mm - -
Hour Temp Dew Point Humidity Winds Wind Gusts Pressure Precip Precip Rate Daily Precip Total
12:00 AM 52.7°F11.5°C 45.7°F7.6°C 77% Calm Calm -- 29.95 in1014.2 mb 0.00 in0.0 mm 0.00 in0.0 mm 0.00 in0.0 mm
12:10 AM 52.5°F11.4°C 45.9°F7.7°C 78% 0.4 mph W0.6 kmh W 5.4 mph8.7 kmh 29.95 in1014.2 mb 0.00 in0.0 mm 0.00 in0.0 mm 0.00 in0.0 mm
12:20 AM 52.5°F11.4°C 45.9°F7.7°C 78% Calm Calm 1.4 mph2.3 kmh 29.92 in1013.2 mb 0.00 in0.0 mm 0.00 in0.0 mm 0.00 in0.0 mm
12:30 AM 52.3°F11.3°C 45.7°F7.6°C 78% Calm Calm -- 29.92 in1013.2 mb 0.00 in0.0 mm 0.00 in0.0 mm 0.00 in0.0 mm
12:40 AM 52.2°F11.2°C 45.5°F7.5°C 78% 0.5 mph W0.8 kmh W 4.3 mph6.9 kmh 29.92 in1013.2 mb 0.00 in0.0 mm 0.00 in0.0 mm 0.00 in0.0 mm
12:50 AM 51.8°F11.0°C 45.5°F7.5°C 79% 2.5 mph W4.0 kmh W 6.8 mph10.9 kmh 29.92 in1013.2 mb 0.00 in0.0 mm 0.00 in0.0 mm 0.00 in0.0 mm
01:00 AM 51.4°F10.8°C 45.1°F7.3°C 79% 1.4 mph W2.3 kmh W 5.7 mph9.2 kmh 29.92 in1013.2 mb 0.00 in0.0 mm 0.00 in0.0 mm 0.00 in0.0 mm
01:10 AM 51.4°F10.8°C 45.8°F7.7°C 81% 0.4 mph W0.6 kmh W 3.9 mph6.3 kmh 29.92 in1013.2 mb 0.00 in0.0 mm 0.00 in0.0 mm 0.00 in0.0 mm
01:20 AM 51.1°F10.6°C 45.5°F7.5°C 81% 2.3 mph W3.7 kmh W 6.1 mph9.8 kmh 29.92 in1013.2 mb 0.00 in0.0 mm 0.00 in0.0 mm 0.00 in0.0 mm
01:30 AM 50.7°F10.4°C 45.4°F7.4°C 82% 1.6 mph W2.6 kmh W 5.4 mph8.7 kmh 29.89 in1012.2 mb 0.00 in0.0 mm 0.00 in0.0 mm 0.00 in0.0 mm
01:40 AM 50.5°F10.3°C 45.6°F7.6°C 83% 1.0 mph W1.6 kmh W 5.0 mph8.0 kmh 29.89 in1012.2 mb 0.00 in0.0 mm 0.00 in0.0 mm 0.00 in0.0 mm
01:50 AM 50.5°F10.3°C 45.6°F7.6°C 83% 0.7 mph W1.1 kmh W 8.6 mph13.8 kmh 29.89 in1012.2 mb 0.00 in0.0 mm 0.00 in0.0 mm 0.00 in0.0 mm
02:00 AM 50.5°F10.3°C 45.9°F7.7°C 84% 0.8 mph W1.3 kmh W 5.4 mph8.7 kmh 29.89 in1012.2 mb 0.00 in0.0 mm 0.00 in0.0 mm 0.00 in0.0 mm
02:10 AM 50.7°F10.4°C 46.1°F7.8°C 84% 0.5 mph NW0.8 kmh NW 4.3 mph6.9 kmh 29.89 in1012.2 mb 0.00 in0.0 mm 0.00 in0.0 mm 0.00 in0.0 mm
02:20 AM 50.7°F10.4°C 46.4°F8.0°C 85% 1.8 mph W2.9 kmh W 8.6 mph13.8 kmh 29.86 in1011.2 mb 0.00 in0.0 mm 0.00 in0.0 mm 0.00 in0.0 mm
02:30 AM 50.7°F10.4°C 46.4°F8.0°C 85% 0.6 mph WNW1.0 kmh WNW 4.3 mph6.9 kmh 29.89 in1012.2 mb 0.00 in0.0 mm 0.00 in0.0 mm 0.00 in0.0 mm
02:40 AM 50.7°F10.4°C 46.4°F8.0°C 85% 1.2 mph W1.9 kmh W 5.4 mph8.7 kmh 29.89 in1012.2 mb 0.00 in0.0 mm 0.00 in0.0 mm 0.00 in0.0 mm
02:50 AM 50.5°F10.3°C 46.2°F7.9°C 85% 3.0 mph W4.8 kmh W 7.2 mph11.6 kmh 29.89 in1012.2 mb 0.00 in0.0 mm 0.00 in0.0 mm 0.00 in0.0 mm
03:00 AM 50.5°F10.3°C 46.5°F8.1°C 86% 2.5 mph WNW4.0 kmh WNW 9.7 mph15.6 kmh 29.89 in1012.2 mb 0.00 in0.0 mm 0.00 in0.0 mm 0.00 in0.0 mm
03:10 AM 50.4°F10.2°C 46.3°F7.9°C 86% 1.9 mph NW3.1 kmh NW 7.5 mph12.1 kmh 29.89 in1012.2 mb 0.00 in0.0 mm 0.00 in0.0 mm 0.00 in0.0 mm
03:20 AM 50.4°F10.2°C 46.3°F7.9°C 86% 1.2 mph NW1.9 kmh NW 5.4 mph8.7 kmh 29.89 in1012.2 mb 0.00 in0.0 mm 0.00 in0.0 mm 0.00 in0.0 mm
03:30 AM 50.4°F10.2°C 46.6°F8.1°C 87% 1.8 mph WNW2.9 kmh WNW 7.9 mph12.7 kmh 29.86 in1011.2 mb 0.00 in0.0 mm 0.00 in0.0 mm 0.00 in0.0 mm
03:40 AM 50.2°F10.1°C 46.5°F8.1°C 87% 1.7 mph WNW2.7 kmh WNW 6.1 mph9.8 kmh 29.86 in1011.2 mb 0.00 in0.0 mm 0.00 in0.0 mm 0.00 in0.0 mm
03:50 AM 50.0°F10.0°C 46.0°F7.8°C 86% 3.1 mph NW5.0 kmh NW 10.4 mph16.7 kmh 29.86 in1011.2 mb 0.00 in0.0 mm 0.00 in0.0 mm 0.00 in0.0 mm
04:00 AM 49.8°F9.9°C 46.1°F7.8°C 87% 3.1 mph WNW5.0 kmh WNW 8.9 mph14.3 kmh 29.86 in1011.2 mb 0.00 in0.0 mm 0.00 in0.0 mm 0.00 in0.0 mm
04:10 AM 49.6°F9.8°C 45.9°F7.7°C 87% 2.8 mph NW4.5 kmh NW 9.7 mph15.6 kmh 29.86 in1011.2 mb 0.00 in0.0 mm 0.00 in0.0 mm 0.00 in0.0 mm
04:20 AM 49.5°F9.7°C 45.8°F7.7°C 87% 3.3 mph NW5.3 kmh NW 8.9 mph14.3 kmh 29.86 in1011.2 mb 0.00 in0.0 mm 0.00 in0.0 mm 0.00 in0.0 mm
04:30 AM 49.3°F9.6°C 45.6°F7.6°C 87% 4.0 mph NW6.4 kmh NW 10.0 mph16.1 kmh 29.83 in1010.2 mb 0.00 in0.0 mm 0.00 in0.0 mm 0.00 in0.0 mm
04:40 AM 49.3°F9.6°C 45.6°F7.6°C 87% 2.1 mph NW3.4 kmh NW 6.1 mph9.8 kmh 29.83 in1010.2 mb 0.00 in0.0 mm 0.00 in0.0 mm 0.00 in0.0 mm
04:50 AM 49.3°F9.6°C 45.6°F7.6°C 87% 2.2 mph NW3.5 kmh NW 10.4 mph16.7 kmh 29.83 in1010.2 mb 0.00 in0.0 mm 0.00 in0.0 mm 0.00 in0.0 mm
05:00 AM 49.3°F9.6°C 45.6°F7.6°C 87% 2.5 mph NW4.0 kmh NW 6.1 mph9.8 kmh 29.83 in1010.2 mb 0.00 in0.0 mm 0.00 in0.0 mm 0.00 in0.0 mm
05:10 AM 49.3°F9.6°C 45.9°F7.7°C 88% 3.1 mph NW5.0 kmh NW 8.9 mph14.3 kmh 29.83 in1010.2 mb 0.00 in0.0 mm 0.00 in0.0 mm 0.00 in0.0 mm
05:20 AM 49.5°F9.7°C 46.1°F7.8°C 88% 0.8 mph W1.3 kmh W 5.0 mph8.0 kmh 29.80 in1009.1 mb 0.00 in0.0 mm 0.00 in0.0 mm 0.00 in0.0 mm
05:30 AM 49.6°F9.8°C 46.2°F7.9°C 88% 1.9 mph W3.1 kmh W 7.9 mph12.7 kmh 29.80 in1009.1 mb 0.00 in0.0 mm 0.00 in0.0 mm 0.00 in0.0 mm
05:40 AM 49.5°F9.7°C 46.1°F7.8°C 88% 2.8 mph W4.5 kmh W 9.3 mph15.0 kmh 29.80 in1009.1 mb 0.00 in0.0 mm 0.00 in0.0 mm 0.00 in0.0 mm
05:50 AM 49.3°F9.6°C 45.9°F7.7°C 88% 4.0 mph WNW6.4 kmh WNW 15.7 mph25.3 kmh 29.83 in1010.2 mb 0.00 in0.0 mm 0.00 in0.0 mm 0.00 in0.0 mm
06:00 AM 49.3°F9.6°C 45.9°F7.7°C 88% 3.2 mph W5.1 kmh W 10.0 mph16.1 kmh 29.86 in1011.2 mb 0.00 in0.0 mm 0.00 in0.0 mm 0.00 in0.0 mm
06:10 AM 49.3°F9.6°C 45.9°F7.7°C 88% 3.5 mph W5.6 kmh W 9.3 mph15.0 kmh 29.86 in1011.2 mb 0.00 in0.0 mm 0.00 in0.0 mm 0.00 in0.0 mm
06:20 AM 49.3°F9.6°C 45.9°F7.7°C 88% 3.2 mph W5.1 kmh W 10.0 mph16.1 kmh 29.83 in1010.2 mb 0.00 in0.0 mm 0.00 in0.0 mm 0.00 in0.0 mm
06:30 AM 49.3°F9.6°C 45.9°F7.7°C 88% 2.4 mph W3.9 kmh W 6.4 mph10.3 kmh 29.83 in1010.2 mb 0.00 in0.0 mm 0.00 in0.0 mm 0.00 in0.0 mm
06:40 AM 49.3°F9.6°C 45.9°F7.7°C 88% 1.7 mph W2.7 kmh W 9.7 mph15.6 kmh 29.83 in1010.2 mb 0.00 in0.0 mm 0.00 in0.0 mm 0.00 in0.0 mm
06:50 AM 49.1°F9.5°C 45.7°F7.6°C 88% 2.8 mph WNW4.5 kmh WNW 8.9 mph14.3 kmh 29.83 in1010.2 mb 0.00 in0.0 mm 0.00 in0.0 mm 0.00 in0.0 mm
07:00 AM 49.3°F9.6°C 45.9°F7.7°C 88% 3.5 mph W5.6 kmh W 12.5 mph20.1 kmh 29.83 in1010.2 mb 0.00 in0.0 mm 0.00 in0.0 mm 0.00 in0.0 mm
07:10 AM 49.3°F9.6°C 45.9°F7.7°C 88% 3.5 mph W5.6 kmh W 10.0 mph16.1 kmh 29.83 in1010.2 mb 0.00 in0.0 mm 0.00 in0.0 mm 0.00 in0.0 mm
07:20 AM 49.3°F9.6°C 46.2°F7.9°C 89% 2.5 mph W4.0 kmh W 7.9 mph12.7 kmh 29.83 in1010.2 mb 0.00 in0.0 mm 0.00 in0.0 mm 0.00 in0.0 mm
07:30 AM 49.3°F9.6°C 46.2°F7.9°C 89% 3.5 mph WNW5.6 kmh WNW 11.8 mph19.0 kmh 29.80 in1009.1 mb 0.00 in0.0 mm 0.00 in0.0 mm 0.00 in0.0 mm
07:40 AM 49.3°F9.6°C 46.2°F7.9°C 89% 3.5 mph WNW5.6 kmh WNW 10.4 mph16.7 kmh 29.80 in1009.1 mb 0.00 in0.0 mm 0.00 in0.0 mm 0.00 in0.0 mm
07:50 AM 49.3°F9.6°C 46.2°F7.9°C 89% 4.3 mph W6.9 kmh W 10.4 mph16.7 kmh 29.80 in1009.1 mb 0.00 in0.0 mm 0.00 in0.0 mm 0.00 in0.0 mm
08:00 AM 49.6°F9.8°C 46.5°F8.1°C 89% 2.5 mph W4.0 kmh W 6.8 mph10.9 kmh 29.80 in1009.1 mb 0.00 in0.0 mm 0.00 in0.0 mm 0.00 in0.0 mm
08:10 AM 49.6°F9.8°C 46.5°F8.1°C 89% 2.9 mph W4.7 kmh W 9.3 mph15.0 kmh 29.80 in1009.1 mb 0.00 in0.0 mm 0.00 in0.0 mm 0.00 in0.0 mm
08:20 AM 49.8°F9.9°C 46.7°F8.2°C 89% 3.7 mph W6.0 kmh W 10.4 mph16.7 kmh 29.80 in1009.1 mb 0.00 in0.0 mm 0.00 in0.0 mm 0.00 in0.0 mm
08:30 AM 49.8°F9.9°C 46.7°F8.2°C 89% 3.6 mph W5.8 kmh W 11.1 mph17.9 kmh 29.80 in1009.1 mb 0.00 in0.0 mm 0.00 in0.0 mm 0.00 in0.0 mm
08:40 AM 49.8°F9.9°C 46.7°F8.2°C 89% 4.2 mph W6.8 kmh W 15.4 mph24.8 kmh 29.80 in1009.1 mb 0.00 in0.0 mm 0.00 in0.0 mm 0.00 in0.0 mm
08:50 AM 50.0°F10.0°C 46.9°F8.3°C 89% 4.4 mph W7.1 kmh W 15.4 mph24.8 kmh 29.80 in1009.1 mb 0.00 in0.0 mm 0.00 in0.0 mm 0.00 in0.0 mm
09:00 AM 50.2°F10.1°C 47.1°F8.4°C 89% 3.0 mph W4.8 kmh W 9.3 mph15.0 kmh 29.80 in1009.1 mb 0.00 in0.0 mm 0.00 in0.0 mm 0.00 in0.0 mm
09:10 AM 50.4°F10.2°C 47.2°F8.4°C 89% 3.1 mph W5.0 kmh W 7.5 mph12.1 kmh 29.80 in1009.1 mb 0.00 in0.0 mm 0.00 in0.0 mm 0.00 in0.0 mm
09:20 AM 50.5°F10.3°C 47.4°F8.6°C 89% 3.0 mph W4.8 kmh W 8.6 mph13.8 kmh 29.80 in1009.1 mb 0.00 in0.0 mm 0.00 in0.0 mm 0.00 in0.0 mm
09:30 AM 50.7°F10.4°C 47.6°F8.7°C 89% 3.5 mph W5.6 kmh W 7.5 mph12.1 kmh 29.77 in1008.1 mb 0.00 in0.0 mm 0.00 in0.0 mm 0.00 in0.0 mm
09:40 AM 50.9°F10.5°C 47.8°F8.8°C 89% 5.2 mph W8.4 kmh W 14.3 mph23.0 kmh 29.77 in1008.1 mb 0.00 in0.0 mm 0.00 in0.0 mm 0.00 in0.0 mm
09:50 AM 51.1°F10.6°C 48.0°F8.9°C 89% 5.4 mph W8.7 kmh W 14.3 mph23.0 kmh 29.74 in1007.1 mb 0.00 in0.0 mm 0.00 in0.0 mm 0.00 in0.0 mm
10:00 AM 51.4°F10.8°C 48.3°F9.1°C 89% 2.9 mph W4.7 kmh W 8.9 mph14.3 kmh 29.77 in1008.1 mb 0.00 in0.0 mm 0.00 in0.0 mm 0.00 in0.0 mm
10:10 AM 51.6°F10.9°C 48.5°F9.2°C 89% 3.6 mph W5.8 kmh W 10.0 mph16.1 kmh 29.77 in1008.1 mb 0.00 in0.0 mm 0.00 in0.0 mm 0.00 in0.0 mm
10:20 AM 51.8°F11.0°C 48.4°F9.1°C 88% 3.4 mph WNW5.5 kmh WNW 12.9 mph20.8 kmh 29.77 in1008.1 mb 0.00 in0.0 mm 0.00 in0.0 mm 0.00 in0.0 mm
10:30 AM 52.0°F11.1°C 48.5°F9.2°C 88% 3.8 mph W6.1 kmh W 9.3 mph15.0 kmh 29.74 in1007.1 mb 0.00 in0.0 mm 0.00 in0.0 mm 0.00 in0.0 mm
10:40 AM 52.0°F11.1°C 48.2°F9.0°C 87% 4.0 mph W6.4 kmh W 10.4 mph16.7 kmh 29.74 in1007.1 mb 0.00 in0.0 mm 0.00 in0.0 mm 0.00 in0.0 mm
10:50 AM 52.2°F11.2°C 48.4°F9.1°C 87% 3.5 mph WNW5.6 kmh WNW 8.9 mph14.3 kmh 29.74 in1007.1 mb 0.00 in0.0 mm 0.00 in0.0 mm 0.00 in0.0 mm
11:00 AM 52.3°F11.3°C 48.6°F9.2°C 87% 4.4 mph WSW7.1 kmh WSW 9.7 mph15.6 kmh 29.77 in1008.1 mb 0.00 in0.0 mm 0.00 in0.0 mm 0.00 in0.0 mm
11:10 AM 52.5°F11.4°C 48.8°F9.3°C 87% 2.9 mph W4.7 kmh W 9.7 mph15.6 kmh 29.77 in1008.1 mb 0.00 in0.0 mm 0.00 in0.0 mm 0.00 in0.0 mm
11:20 AM 52.7°F11.5°C 48.6°F9.2°C 86% 3.7 mph W6.0 kmh W 12.5 mph20.1 kmh 29.77 in1008.1 mb 0.00 in0.0 mm 0.00 in0.0 mm 0.00 in0.0 mm
11:30 AM 52.9°F11.6°C 48.8°F9.3°C 86% 3.3 mph W5.3 kmh W 7.9 mph12.7 kmh 29.77 in1008.1 mb 0.00 in0.0 mm 0.00 in0.0 mm 0.00 in0.0 mm
11:40 AM 53.2°F11.8°C 48.8°F9.3°C 85% 4.5 mph W7.2 kmh W 11.8 mph19.0 kmh 29.77 in1008.1 mb 0.00 in0.0 mm 0.00 in0.0 mm 0.00 in0.0 mm
11:50 AM 53.4°F11.9°C 49.0°F9.4°C 85% 4.9 mph W7.9 kmh W 12.2 mph19.6 kmh 29.74 in1007.1 mb 0.00 in0.0 mm 0.00 in0.0 mm 0.00 in0.0 mm
12:00 PM 53.4°F11.9°C 48.7°F9.3°C 84% 4.6 mph W7.4 kmh W 14.0 mph22.5 kmh 29.74 in1007.1 mb 0.00 in0.0 mm 0.00 in0.0 mm 0.00 in0.0 mm
12:10 PM 53.2°F11.8°C 48.5°F9.2°C 84% 4.7 mph W7.6 kmh W 12.5 mph20.1 kmh 29.74 in1007.1 mb 0.00 in0.0 mm 0.00 in0.0 mm 0.00 in0.0 mm
12:20 PM 53.4°F11.9°C 48.4°F9.1°C 83% 4.5 mph W7.2 kmh W 14.0 mph22.5 kmh 29.74 in1007.1 mb 0.00 in0.0 mm 0.00 in0.0 mm 0.00 in0.0 mm
12:30 PM 53.6°F12.0°C 48.9°F9.4°C 84% 3.6 mph W5.8 kmh W 11.8 mph19.0 kmh 29.74 in1007.1 mb 0.00 in0.0 mm 0.00 in0.0 mm 0.00 in0.0 mm
12:40 PM 54.0°F12.2°C 49.2°F9.6°C 84% 5.0 mph W8.0 kmh W 10.4 mph16.7 kmh 29.74 in1007.1 mb 0.00 in0.0 mm 0.00 in0.0 mm 0.00 in0.0 mm
12:50 PM 54.3°F12.4°C 49.3°F9.6°C 83% 3.8 mph W6.1 kmh W 12.2 mph19.6 kmh 29.74 in1007.1 mb 0.00 in0.0 mm 0.00 in0.0 mm 0.00 in0.0 mm
01:00 PM 54.3°F12.4°C 49.3°F9.6°C 83% 6.0 mph W9.7 kmh W 13.6 mph21.9 kmh 29.71 in1006.1 mb 0.00 in0.0 mm 0.00 in0.0 mm 0.00 in0.0 mm
01:10 PM 54.5°F12.5°C 49.4°F9.7°C 83% 5.6 mph WNW9.0 kmh WNW 15.7 mph25.3 kmh 29.71 in1006.1 mb 0.00 in0.0 mm 0.00 in0.0 mm 0.00 in0.0 mm
01:20 PM 54.9°F12.7°C 49.8°F9.9°C 83% 4.4 mph W7.1 kmh W 14.0 mph22.5 kmh 29.71 in1006.1 mb 0.00 in0.0 mm 0.00 in0.0 mm 0.00 in0.0 mm
01:30 PM 55.0°F12.8°C 50.0°F10.0°C 83% 3.7 mph W6.0 kmh W 8.9 mph14.3 kmh 29.71 in1006.1 mb 0.00 in0.0 mm 0.00 in0.0 mm 0.00 in0.0 mm
01:40 PM 55.2°F12.9°C 49.8°F9.9°C 82% 5.8 mph W9.3 kmh W 20.4 mph32.8 kmh 29.71 in1006.1 mb 0.00 in0.0 mm 0.00 in0.0 mm 0.00 in0.0 mm
01:50 PM 55.2°F12.9°C 49.5°F9.7°C 81% 4.9 mph W7.9 kmh W 13.6 mph21.9 kmh 29.71 in1006.1 mb 0.00 in0.0 mm 0.00 in0.0 mm 0.00 in0.0 mm
02:00 PM 55.2°F12.9°C 49.2°F9.6°C 80% 6.0 mph WNW9.7 kmh WNW 16.1 mph25.9 kmh 29.71 in1006.1 mb 0.00 in0.0 mm 0.00 in0.0 mm 0.00 in0.0 mm
02:10 PM 55.2°F12.9°C 49.2°F9.6°C 80% 4.6 mph NW7.4 kmh NW 12.5 mph20.1 kmh 29.71 in1006.1 mb 0.00 in0.0 mm 0.00 in0.0 mm 0.00 in0.0 mm
02:20 PM 55.4°F13.0°C 49.3°F9.6°C 80% 4.0 mph W6.4 kmh W 10.4 mph16.7 kmh 29.68 in1005.1 mb 0.00 in0.0 mm 0.00 in0.0 mm 0.00 in0.0 mm
02:30 PM 55.9°F13.3°C 50.2°F10.1°C 81% 4.0 mph WNW6.4 kmh WNW 9.3 mph15.0 kmh 29.71 in1006.1 mb 0.00 in0.0 mm 0.00 in0.0 mm 0.00 in0.0 mm
02:40 PM 56.1°F13.4°C 50.0°F10.0°C 80% 5.0 mph WNW8.0 kmh WNW 12.5 mph20.1 kmh 29.71 in1006.1 mb 0.00 in0.0 mm 0.00 in0.0 mm 0.00 in0.0 mm
02:50 PM 56.5°F13.6°C 50.4°F10.2°C 80% 4.8 mph WNW7.7 kmh WNW 12.2 mph19.6 kmh 29.71 in1006.1 mb 0.00 in0.0 mm 0.00 in0.0 mm 0.00 in0.0 mm
03:00 PM 56.5°F13.6°C 50.0°F10.0°C 79% 5.5 mph W8.9 kmh W 15.7 mph25.3 kmh 29.71 in1006.1 mb 0.00 in0.0 mm 0.00 in0.0 mm 0.00 in0.0 mm
03:10 PM 55.9°F13.3°C 49.5°F9.7°C 79% 6.8 mph W10.9 kmh W 17.5 mph28.2 kmh 29.71 in1006.1 mb 0.00 in0.0 mm 0.00 in0.0 mm 0.00 in0.0 mm
03:20 PM 56.1°F13.4°C 49.7°F9.8°C 79% 4.9 mph WNW7.9 kmh WNW 12.5 mph20.1 kmh 29.68 in1005.1 mb 0.00 in0.0 mm 0.00 in0.0 mm 0.00 in0.0 mm
03:30 PM 56.1°F13.4°C 49.7°F9.8°C 79% 5.0 mph WNW8.0 kmh WNW 15.7 mph25.3 kmh 29.68 in1005.1 mb 0.00 in0.0 mm 0.00 in0.0 mm 0.00 in0.0 mm
03:40 PM 56.3°F13.5°C 49.9°F9.9°C 79% 4.2 mph W6.8 kmh W 12.5 mph20.1 kmh 29.68 in1005.1 mb 0.00 in0.0 mm 0.00 in0.0 mm 0.00 in0.0 mm
03:50 PM 56.1°F13.4°C 49.7°F9.8°C 79% 4.9 mph W7.9 kmh W 12.2 mph19.6 kmh 29.68 in1005.1 mb 0.00 in0.0 mm 0.00 in0.0 mm 0.00 in0.0 mm
04:00 PM 56.3°F13.5°C 49.9°F9.9°C 79% 5.2 mph WNW8.4 kmh WNW 12.2 mph19.6 kmh 29.68 in1005.1 mb 0.00 in0.0 mm 0.00 in0.0 mm 0.00 in0.0 mm
04:10 PM 56.5°F13.6°C 50.0°F10.0°C 79% 6.3 mph WNW10.1 kmh WNW 16.1 mph25.9 kmh 29.68 in1005.1 mb 0.00 in0.0 mm 0.00 in0.0 mm 0.00 in0.0 mm
04:20 PM 56.8°F13.8°C 50.4°F10.2°C 79% 5.5 mph W8.9 kmh W 12.5 mph20.1 kmh 29.68 in1005.1 mb 0.00 in0.0 mm 0.00 in0.0 mm 0.00 in0.0 mm
04:30 PM 58.3°F14.6°C 51.8°F11.0°C 79% 5.3 mph WNW8.5 kmh WNW 14.7 mph23.7 kmh 29.68 in1005.1 mb 0.00 in0.0 mm 0.00 in0.0 mm 0.00 in0.0 mm
04:40 PM 59.4°F15.2°C 52.5°F11.4°C 78% 5.0 mph W8.0 kmh W 12.5 mph20.1 kmh 29.68 in1005.1 mb 0.00 in0.0 mm 0.00 in0.0 mm 0.00 in0.0 mm
04:50 PM 58.8°F14.9°C 50.9°F10.5°C 75% 6.0 mph W9.7 kmh W 14.0 mph22.5 kmh 29.65 in1004.1 mb 0.00 in0.0 mm 0.00 in0.0 mm 0.00 in0.0 mm
05:00 PM 58.6°F14.8°C 51.1°F10.6°C 76% 5.0 mph WNW8.0 kmh WNW 15.4 mph24.8 kmh 29.65 in1004.1 mb 0.00 in0.0 mm 0.00 in0.0 mm 0.00 in0.0 mm
05:10 PM 58.5°F14.7°C 50.6°F10.3°C 75% 4.7 mph W7.6 kmh W 12.2 mph19.6 kmh 29.65 in1004.1 mb 0.00 in0.0 mm 0.00 in0.0 mm 0.00 in0.0 mm
05:20 PM 58.6°F14.8°C 50.7°F10.4°C 75% 5.1 mph W8.2 kmh W 12.5 mph20.1 kmh 29.65 in1004.1 mb 0.00 in0.0 mm 0.00 in0.0 mm 0.00 in0.0 mm
05:30 PM 58.1°F14.5°C 50.2°F10.1°C 75% 5.7 mph W9.2 kmh W 17.5 mph28.2 kmh 29.62 in1003.0 mb 0.00 in0.0 mm 0.00 in0.0 mm 0.00 in0.0 mm
05:40 PM 58.1°F14.5°C 50.2°F10.1°C 75% 4.1 mph W6.6 kmh W 10.0 mph16.1 kmh 29.62 in1003.0 mb 0.00 in0.0 mm 0.00 in0.0 mm 0.00 in0.0 mm
05:50 PM 57.2°F14.0°C 49.0°F9.4°C 74% 4.8 mph W7.7 kmh W 12.9 mph20.8 kmh 29.65 in1004.1 mb 0.00 in0.0 mm 0.00 in0.0 mm 0.00 in0.0 mm
06:00 PM 56.3°F13.5°C 48.1°F8.9°C 74% 4.6 mph W7.4 kmh W 10.4 mph16.7 kmh 29.65 in1004.1 mb 0.00 in0.0 mm 0.00 in0.0 mm 0.00 in0.0 mm
06:10 PM 55.8°F13.2°C 48.0°F8.9°C 75% 5.1 mph W8.2 kmh W 12.9 mph20.8 kmh 29.65 in1004.1 mb 0.00 in0.0 mm 0.00 in0.0 mm 0.00 in0.0 mm
06:20 PM 55.2°F12.9°C 47.4°F8.6°C 75% 6.1 mph W9.8 kmh W 17.5 mph28.2 kmh 29.65 in1004.1 mb 0.00 in0.0 mm 0.00 in0.0 mm 0.00 in0.0 mm
06:30 PM 54.5°F12.5°C 47.1°F8.4°C 76% 5.5 mph W8.9 kmh W 12.5 mph20.1 kmh 29.65 in1004.1 mb 0.00 in0.0 mm 0.00 in0.0 mm 0.00 in0.0 mm
06:40 PM 54.0°F12.2°C 46.6°F8.1°C 76% 5.7 mph W9.2 kmh W 12.9 mph20.8 kmh 29.65 in1004.1 mb 0.00 in0.0 mm 0.00 in0.0 mm 0.00 in0.0 mm
06:50 PM 53.4°F11.9°C 46.4°F8.0°C 77% 5.5 mph WNW8.9 kmh WNW 13.6 mph21.9 kmh 29.62 in1003.0 mb 0.00 in0.0 mm 0.00 in0.0 mm 0.00 in0.0 mm
07:00 PM 53.1°F11.7°C 46.4°F8.0°C 78% 6.1 mph W9.8 kmh W 12.9 mph20.8 kmh 29.62 in1003.0 mb 0.00 in0.0 mm 0.00 in0.0 mm 0.00 in0.0 mm
07:10 PM 52.7°F11.5°C 46.0°F7.8°C 78% 6.2 mph W10.0 kmh W 15.4 mph24.8 kmh 29.62 in1003.0 mb 0.00 in0.0 mm 0.00 in0.0 mm 0.00 in0.0 mm
07:20 PM 52.5°F11.4°C 46.2°F7.9°C 79% 5.0 mph W8.0 kmh W 10.4 mph16.7 kmh 29.59 in1002.0 mb 0.00 in0.0 mm 0.00 in0.0 mm 0.00 in0.0 mm
07:30 PM 52.3°F11.3°C 46.0°F7.8°C 79% 4.8 mph W7.7 kmh W 11.8 mph19.0 kmh 29.59 in1002.0 mb 0.00 in0.0 mm 0.00 in0.0 mm 0.00 in0.0 mm
07:40 PM 52.2°F11.2°C 45.8°F7.7°C 79% 6.3 mph WNW10.1 kmh WNW 21.1 mph34.0 kmh 29.59 in1002.0 mb 0.00 in0.0 mm 0.00 in0.0 mm 0.00 in0.0 mm
07:50 PM 51.8°F11.0°C 45.2°F7.3°C 78% 7.1 mph W11.4 kmh W 23.3 mph37.5 kmh 29.59 in1002.0 mb 0.00 in0.0 mm 0.00 in0.0 mm 0.00 in0.0 mm
08:00 PM 51.4°F10.8°C 44.8°F7.1°C 78% 7.6 mph W12.2 kmh W 20.8 mph33.5 kmh 29.59 in1002.0 mb 0.00 in0.0 mm 0.00 in0.0 mm 0.00 in0.0 mm
08:10 PM 51.3°F10.7°C 44.6°F7.0°C 78% 5.6 mph WNW9.0 kmh WNW 14.0 mph22.5 kmh 29.59 in1002.0 mb 0.00 in0.0 mm 0.00 in0.0 mm 0.00 in0.0 mm
08:20 PM 51.1°F10.6°C 44.5°F6.9°C 78% 7.0 mph W11.3 kmh W 16.8 mph27.0 kmh 29.56 in1001.0 mb 0.00 in0.0 mm 0.00 in0.0 mm 0.00 in0.0 mm
08:30 PM 50.9°F10.5°C 44.3°F6.8°C 78% 6.2 mph W10.0 kmh W 16.5 mph26.6 kmh 29.59 in1002.0 mb 0.00 in0.0 mm 0.00 in0.0 mm 0.00 in0.0 mm
08:40 PM 50.7°F10.4°C 44.1°F6.7°C 78% 6.2 mph NW10.0 kmh NW 20.8 mph33.5 kmh 29.59 in1002.0 mb 0.00 in0.0 mm 0.00 in0.0 mm 0.00 in0.0 mm
08:50 PM 50.4°F10.2°C 43.8°F6.6°C 78% 5.8 mph W9.3 kmh W 12.9 mph20.8 kmh 29.59 in1002.0 mb 0.00 in0.0 mm 0.00 in0.0 mm 0.00 in0.0 mm
09:00 PM 50.4°F10.2°C 44.1°F6.7°C 79% 6.1 mph W9.8 kmh W 16.8 mph27.0 kmh 29.59 in1002.0 mb 0.00 in0.0 mm 0.00 in0.0 mm 0.00 in0.0 mm
09:10 PM 50.0°F10.0°C 43.7°F6.5°C 79% 6.7 mph WNW10.8 kmh WNW 20.8 mph33.5 kmh 29.59 in1002.0 mb 0.00 in0.0 mm 0.00 in0.0 mm 0.00 in0.0 mm
09:20 PM 50.0°F10.0°C 43.7°F6.5°C 79% 6.3 mph W10.1 kmh W 17.2 mph27.7 kmh 29.59 in1002.0 mb 0.00 in0.0 mm 0.00 in0.0 mm 0.00 in0.0 mm
09:30 PM 49.8°F9.9°C 43.6°F6.4°C 79% 5.1 mph WNW8.2 kmh WNW 12.9 mph20.8 kmh 29.56 in1001.0 mb 0.00 in0.0 mm 0.00 in0.0 mm 0.00 in0.0 mm
09:40 PM 49.6°F9.8°C 43.4°F6.3°C 79% 7.2 mph WNW11.6 kmh WNW 17.5 mph28.2 kmh 29.56 in1001.0 mb 0.00 in0.0 mm 0.00 in0.0 mm 0.00 in0.0 mm
09:50 PM 49.6°F9.8°C 43.4°F6.3°C 79% 6.1 mph W9.8 kmh W 13.6 mph21.9 kmh 29.56 in1001.0 mb 0.00 in0.0 mm 0.00 in0.0 mm 0.00 in0.0 mm
10:00 PM 49.5°F9.7°C 43.5°F6.4°C 80% 6.5 mph WNW10.5 kmh WNW 17.5 mph28.2 kmh 29.56 in1001.0 mb 0.00 in0.0 mm 0.00 in0.0 mm 0.00 in0.0 mm
10:10 PM 49.3°F9.6°C 43.4°F6.3°C 80% 5.8 mph WNW9.3 kmh WNW 12.9 mph20.8 kmh 29.56 in1001.0 mb 0.00 in0.0 mm 0.00 in0.0 mm 0.00 in0.0 mm
10:20 PM 49.1°F9.5°C 43.2°F6.2°C 80% 7.5 mph WNW12.1 kmh WNW 17.2 mph27.7 kmh 29.53 in1000.0 mb 0.00 in0.0 mm 0.00 in0.0 mm 0.00 in0.0 mm
10:30 PM 48.9°F9.4°C 43.0°F6.1°C 80% 7.2 mph W11.6 kmh W 20.0 mph32.2 kmh 29.53 in1000.0 mb 0.00 in0.0 mm 0.00 in0.0 mm 0.00 in0.0 mm
10:40 PM 48.9°F9.4°C 43.0°F6.1°C 80% 7.8 mph W12.6 kmh W 26.5 mph42.6 kmh 29.53 in1000.0 mb 0.00 in0.0 mm 0.00 in0.0 mm 0.00 in0.0 mm
10:50 PM 48.7°F9.3°C 42.8°F6.0°C 80% 6.8 mph WNW10.9 kmh WNW 19.0 mph30.6 kmh 29.50 in999.0 mb 0.00 in0.0 mm 0.00 in0.0 mm 0.00 in0.0 mm
11:00 PM 48.7°F9.3°C 42.8°F6.0°C 80% 6.6 mph W10.6 kmh W 13.6 mph21.9 kmh 29.56 in1001.0 mb 0.00 in0.0 mm 0.00 in0.0 mm 0.00 in0.0 mm
11:10 PM 48.6°F9.2°C 43.0°F6.1°C 81% 6.2 mph W10.0 kmh W 14.0 mph22.5 kmh 29.56 in1001.0 mb 0.00 in0.0 mm 0.00 in0.0 mm 0.00 in0.0 mm
11:20 PM 48.6°F9.2°C 43.0°F6.1°C 81% 7.0 mph W11.3 kmh W 22.2 mph35.7 kmh 29.56 in1001.0 mb 0.00 in0.0 mm 0.00 in0.0 mm 0.00 in0.0 mm
11:30 PM 48.6°F9.2°C 43.0°F6.1°C 81% 5.3 mph W8.5 kmh W 12.9 mph20.8 kmh 29.50 in999.0 mb 0.00 in0.0 mm 0.00 in0.0 mm 0.00 in0.0 mm
11:40 PM 48.6°F9.2°C 43.3°F6.3°C 82% 5.7 mph W9.2 kmh W 11.8 mph19.0 kmh 29.50 in999.0 mb 0.00 in0.0 mm 0.00 in0.0 mm 0.00 in0.0 mm
11:50 PM 48.6°F9.2°C 43.3°F6.3°C 82% 6.0 mph W9.7 kmh W 12.5 mph20.1 kmh 29.50 in999.0 mb 0.00 in0.0 mm 0.00 in0.0 mm 0.00 in0.0 mm